Time;durP1;ratioP1;P1;durP2;ratioP2;P2;SDS_P1;SDS_P2;PMS_P1;PMS_P2;Temp;Humidity;BMP_temperature;BMP_pressure;BME280_temperature;BME280_humidity;BME280_pressure;Samples;Min_cycle;Max_cycle;Signal;HPM_P1;HPM_P2
2022/04/24 00:01:04;;;;;;;4.47;4.07;;;;;;;12.28;99.75;100163.91;5353024;27;20164;-76
2022/04/24 00:03:35;;;;;;;4.68;4.13;;;;;;;12.22;100.00;100158.41;5346257;27;20408;-76
2022/04/24 00:06:06;;;;;;;6.53;4.40;;;;;;;12.14;100.00;100156.59;5349931;27;20034;-75
2022/04/24 00:08:37;;;;;;;5.30;4.80;;;;;;;12.05;100.00;100157.63;5353269;27;20401;-76
2022/04/24 00:11:09;;;;;;;5.28;4.78;;;;;;;12.00;100.00;100155.44;5347797;27;21307;-76
2022/04/24 00:13:41;;;;;;;5.20;4.70;;;;;;;11.86;100.00;100156.09;5350894;27;20123;-76
2022/04/24 00:16:13;;;;;;;5.40;4.75;;;;;;;11.78;100.00;100158.75;5355982;27;20484;-76
2022/04/24 00:18:44;;;;;;;5.60;5.10;;;;;;;11.65;100.00;100151.25;5351744;27;20027;-76
2022/04/24 00:21:15;;;;;;;5.57;5.00;;;;;;;11.56;100.00;100147.72;5352609;27;20032;-76
2022/04/24 00:23:47;;;;;;;5.10;4.70;;;;;;;11.43;100.00;100145.56;5351088;27;20117;-76
2022/04/24 00:26:18;;;;;;;5.10;4.70;;;;;;;11.35;100.00;100143.69;5348615;27;20032;-76
2022/04/24 00:28:50;;;;;;;5.90;4.80;;;;;;;11.26;100.00;100142.03;5347321;27;20038;-76
2022/04/24 00:31:21;;;;;;;5.78;5.22;;;;;;;11.17;100.00;100135.00;5353134;27;20022;-76
2022/04/24 00:33:52;;;;;;;5.40;4.90;;;;;;;11.04;100.00;100140.78;5351086;27;20031;-76
2022/04/24 00:36:23;;;;;;;6.10;5.28;;;;;;;10.88;100.00;100127.41;5349205;27;20111;-76
2022/04/24 00:38:55;;;;;;;6.90;5.13;;;;;;;10.84;100.00;100139.41;5356743;27;20477;-76
2022/04/24 00:41:26;;;;;;;5.88;4.80;;;;;;;10.72;100.00;100137.00;5352629;27;20034;-76
2022/04/24 00:43:57;;;;;;;6.13;4.88;;;;;;;10.67;100.00;100139.31;5341493;27;20035;-76
2022/04/24 00:46:45;;;;;;;6.35;5.20;;;;;;;10.59;100.00;100137.47;5345263;27;20031;-76
2022/04/24 00:49:16;;;;;;;8.52;5.43;;;;;;;10.49;100.00;100130.59;5345922;27;20040;-76
2022/04/24 00:51:49;;;;;;;6.05;5.45;;;;;;;10.44;100.00;100133.72;5351187;27;20308;-76
2022/04/24 00:54:21;;;;;;;5.82;5.32;;;;;;;10.36;100.00;100137.19;5348421;27;20031;-76
2022/04/24 00:56:52;;;;;;;6.43;5.10;;;;;;;10.30;100.00;100136.94;5352662;27;20115;-76
2022/04/24 00:59:24;;;;;;;6.32;5.55;;;;;;;10.25;100.00;100137.41;5345050;27;20098;-76
2022/04/24 01:01:55;;;;;;;5.82;5.32;;;;;;;10.14;100.00;100135.84;5349697;27;20066;-76
2022/04/24 01:04:26;;;;;;;6.07;5.55;;;;;;;10.14;100.00;100135.03;5345757;27;20038;-76
2022/04/24 01:06:58;;;;;;;5.93;5.43;;;;;;;10.05;100.00;100138.63;5345673;27;20111;-76
2022/04/24 01:09:32;;;;;;;5.70;5.20;;;;;;;9.99;100.00;100129.41;5345783;27;20039;-76
2022/04/24 01:12:04;;;;;;;6.15;5.03;;;;;;;9.94;100.00;100134.38;5348680;27;20108;-76
2022/04/24 01:14:36;;;;;;;6.00;5.45;;;;;;;9.87;100.00;100136.84;5352148;27;20190;-76
2022/04/24 01:17:08;;;;;;;6.38;5.78;;;;;;;9.87;100.00;100136.84;5349319;27;20491;-76
2022/04/24 01:19:40;;;;;;;6.15;5.55;;;;;;;9.87;100.00;100139.50;5347331;27;20020;-76
2022/04/24 01:22:11;;;;;;;7.45;5.65;;;;;;;9.82;100.00;100139.97;5348028;27;20016;-76
2022/04/24 01:24:43;;;;;;;6.85;5.50;;;;;;;9.81;100.00;100135.63;5345826;27;20057;-76
2022/04/24 01:27:14;;;;;;;7.00;5.25;;;;;;;9.78;100.00;100141.28;5353473;27;20019;-76
2022/04/24 01:29:46;;;;;;;7.40;6.25;;;;;;;9.75;100.00;100141.56;5350848;27;20031;-76
2022/04/24 01:32:17;;;;;;;5.65;5.15;;;;;;;9.65;100.00;100151.47;5352503;27;20028;-76
2022/04/24 01:34:48;;;;;;;7.13;5.40;;;;;;;9.60;100.00;100140.44;5345605;27;20136;-76
2022/04/24 01:37:19;;;;;;;6.50;5.80;;;;;;;9.60;100.00;100146.59;5346652;27;20034;-76
2022/04/24 01:39:56;;;;;;;8.27;6.03;;;;;;;9.64;100.00;100141.78;5353487;27;20031;-76
2022/04/24 01:42:27;;;;;;;5.88;5.28;;;;;;;9.65;100.00;100146.16;5348712;27;20602;-76
2022/04/24 01:44:58;;;;;;;6.20;5.60;;;;;;;9.60;100.00;100143.09;5346804;27;20096;-76
2022/04/24 01:47:29;;;;;;;6.18;5.68;;;;;;;9.63;100.00;100148.97;5343604;27;20024;-76
2022/04/24 01:50:01;;;;;;;5.95;5.45;;;;;;;9.67;100.00;100146.81;5350915;27;20044;-76
2022/04/24 01:52:32;;;;;;;6.60;6.00;;;;;;;9.74;100.00;100136.41;5348019;27;20023;-76
2022/04/24 01:55:04;;;;;;;5.90;5.30;;;;;;;9.70;100.00;100143.84;5352101;27;20027;-76
2022/04/24 01:57:35;;;;;;;6.93;6.32;;;;;;;9.65;100.00;100143.47;5347715;27;20023;-76
2022/04/24 02:00:07;;;;;;;6.60;6.00;;;;;;;9.57;100.00;100138.94;5349688;27;20023;-76
2022/04/24 02:02:38;;;;;;;6.32;5.72;;;;;;;9.54;100.00;100141.91;5348855;27;20536;-76
2022/04/24 02:05:10;;;;;;;6.50;5.20;;;;;;;9.51;100.00;100139.53;5353122;27;20035;-76
2022/04/24 02:07:41;;;;;;;6.20;5.60;;;;;;;9.37;100.00;100140.91;5351873;27;20145;-76
2022/04/24 02:10:12;;;;;;;6.53;5.43;;;;;;;9.36;100.00;100143.72;5344417;27;20051;-76
2022/04/24 02:12:44;;;;;;;6.13;5.60;;;;;;;9.32;100.00;100145.00;5356000;27;20440;-76
2022/04/24 02:15:17;;;;;;;6.47;5.63;;;;;;;9.28;100.00;100141.81;5341448;27;20365;-76
2022/04/24 02:17:48;;;;;;;6.50;5.88;;;;;;;9.23;100.00;100139.59;5351941;27;20095;-76
2022/04/24 02:20:19;;;;;;;7.15;6.30;;;;;;;9.28;100.00;100144.47;5347772;27;20773;-76
2022/04/24 02:22:51;;;;;;;6.60;6.00;;;;;;;9.18;100.00;100144.53;5353829;27;20373;-76
2022/04/24 02:25:22;;;;;;;7.20;6.50;;;;;;;9.31;100.00;100144.19;5344841;27;20405;-75
2022/04/24 02:27:55;;;;;;;6.00;5.50;;;;;;;9.22;100.00;100135.28;5346094;27;20057;-76
2022/04/24 02:30:29;;;;;;;6.75;6.15;;;;;;;9.27;100.00;100148.09;5348786;27;20039;-76
2022/04/24 02:33:01;;;;;;;6.63;6.03;;;;;;;9.28;100.00;100141.81;5352104;27;20038;-76
2022/04/24 02:35:32;;;;;;;6.72;6.05;;;;;;;9.38;100.00;100139.91;5356231;27;20465;-76
2022/04/24 02:38:04;;;;;;;6.90;6.20;;;;;;;9.44;100.00;100139.28;5349048;27;20031;-76
2022/04/24 02:40:35;;;;;;;7.30;6.50;;;;;;;9.49;100.00;100138.03;5349234;27;20031;-76
2022/04/24 02:43:06;;;;;;;8.77;6.30;;;;;;;9.54;100.00;100144.56;5347221;27;20031;-76
2022/04/24 02:45:38;;;;;;;7.50;6.80;;;;;;;9.50;100.00;100132.53;5348092;27;20114;-76
2022/04/24 02:48:09;;;;;;;7.72;6.60;;;;;;;9.54;100.00;100144.56;5349976;27;20878;-76
2022/04/24 02:50:40;;;;;;;7.75;7.00;;;;;;;9.58;100.00;100147.75;5347638;27;25704;-76
2022/04/24 02:53:12;;;;;;;9.10;6.95;;;;;;;9.55;100.00;100143.56;5360507;27;20443;-76
2022/04/24 02:55:43;;;;;;;7.20;6.60;;;;;;;9.59;100.00;100142.28;5343201;27;20023;-76
2022/04/24 02:58:14;;;;;;;9.02;7.10;;;;;;;9.59;100.00;100146.75;5345914;27;20028;-76
2022/04/24 03:00:50;;;;;;;7.38;6.68;;;;;;;9.63;100.00;100148.97;5353063;27;20027;-76
2022/04/24 03:03:21;;;;;;;7.38;6.68;;;;;;;9.68;100.00;100150.31;5354065;27;20114;-76
2022/04/24 03:05:52;;;;;;;7.70;6.90;;;;;;;9.68;100.00;100150.31;5345135;27;20499;-76
2022/04/24 03:08:24;;;;;;;8.05;7.25;;;;;;;9.65;100.00;100146.16;5351752;27;20546;-76
2022/04/24 03:10:55;;;;;;;8.13;7.32;;;;;;;9.65;100.00;100140.81;5353517;27;20030;-76
2022/04/24 03:13:26;;;;;;;7.57;6.88;;;;;;;9.61;100.00;100140.28;5349426;27;20023;-76
2022/04/24 03:15:58;;;;;;;8.00;7.20;;;;;;;9.54;100.00;100152.53;5349744;27;20028;-76
2022/04/24 03:18:29;;;;;;;8.20;7.40;;;;;;;9.48;100.00;100146.97;5363918;27;20031;-76
2022/04/24 03:21:00;;;;;;;7.75;7.05;;;;;;;9.50;100.00;100153.00;5351352;27;20036;-76
2022/04/24 03:23:32;;;;;;;7.85;7.03;;;;;;;9.42;100.00;100159.91;5350365;27;20086;-76
2022/04/24 03:26:03;;;;;;;8.18;7.47;;;;;;;9.39;100.00;100152.22;5352043;27;20084;-76
2022/04/24 03:28:34;;;;;;;9.48;7.63;;;;;;;9.32;100.00;100150.34;5346513;27;20031;-76
2022/04/24 03:31:06;;;;;;;7.68;6.88;;;;;;;9.28;100.00;100161.28;5347969;27;20107;-76
2022/04/24 03:33:37;;;;;;;8.90;7.93;;;;;;;9.16;100.00;100154.50;5346384;27;20104;-76
2022/04/24 03:36:09;;;;;;;8.57;7.78;;;;;;;9.09;100.00;100159.56;5344568;27;20031;-76
2022/04/24 03:38:40;;;;;;;9.52;8.15;;;;;;;9.01;100.00;100161.28;5352695;27;20502;-76
2022/04/24 03:41:12;;;;;;;9.00;7.85;;;;;;;8.91;100.00;100158.72;5341782;27;33782;-76
2022/04/24 03:43:43;;;;;;;8.90;7.70;;;;;;;8.83;100.00;100154.13;5346530;27;20051;-76
2022/04/24 03:46:15;;;;;;;8.77;7.88;;;;;;;8.80;100.00;100162.41;5347797;27;20039;-76
2022/04/24 03:48:49;;;;;;;9.57;8.68;;;;;;;8.71;100.00;100157.94;5345186;27;20070;-77
2022/04/24 03:51:21;;;;;;;9.85;8.25;;;;;;;8.63;100.00;100155.22;5346914;27;20019;-76
2022/04/24 03:53:52;;;;;;;11.23;8.20;;;;;;;8.57;100.00;100155.78;5347110;27;20105;-76
2022/04/24 03:56:23;;;;;;;8.93;8.13;;;;;;;8.44;100.00;100164.09;5351942;27;20015;-77
2022/04/24 03:58:54;;;;;;;10.30;8.82;;;;;;;8.37;100.00;100152.34;5348921;27;20142;-77
2022/04/24 04:01:26;;;;;;;9.13;8.13;;;;;;;8.23;100.00;100156.28;5349036;27;20027;-77
2022/04/24 04:03:57;;;;;;;9.93;9.02;;;;;;;8.15;100.00;100154.34;5342201;27;20039;-76
2022/04/24 04:06:29;;;;;;;8.98;8.05;;;;;;;8.05;100.00;100151.72;5353192;27;20012;-77
2022/04/24 04:09:00;;;;;;;9.70;8.85;;;;;;;8.02;100.00;100159.13;5360347;27;20031;-76
2022/04/24 04:11:32;;;;;;;9.98;9.07;;;;;;;7.92;100.00;100149.38;5352099;27;20085;-76
2022/04/24 04:14:03;;;;;;;10.02;9.02;;;;;;;7.87;100.00;100159.59;5348268;27;20032;-76
2022/04/24 04:16:34;;;;;;;10.20;8.40;;;;;;;7.74;100.00;100154.53;5351786;27;20103;-76
2022/04/24 04:19:06;;;;;;;10.75;9.32;;;;;;;7.69;100.00;100164.75;5348528;27;20514;-76
2022/04/24 04:21:37;;;;;;;9.90;8.90;;;;;;;7.68;100.00;100160.44;5349461;27;20384;-76
2022/04/24 04:24:09;;;;;;;11.05;8.93;;;;;;;7.53;100.00;100167.13;5347795;27;20039;-75
2022/04/24 04:26:41;;;;;;;11.90;10.15;;;;;;;7.55;100.00;100168.66;5346460;27;20477;-76
2022/04/24 04:29:12;;;;;;;10.57;9.48;;;;;;;7.60;100.00;100170.06;5349868;27;21434;-76
2022/04/24 04:31:44;;;;;;;10.38;9.30;;;;;;;7.56;100.00;100167.69;5346425;27;20102;-75
2022/04/24 04:34:15;;;;;;;10.50;9.50;;;;;;;7.52;100.00;100174.25;5348149;27;20769;-75
2022/04/24 04:36:46;;;;;;;10.40;9.25;;;;;;;7.58;100.00;100170.19;5351685;27;20026;-76
2022/04/24 04:39:18;;;;;;;10.45;9.40;;;;;;;7.59;100.00;100177.19;5357028;27;20031;-76
2022/04/24 04:41:50;;;;;;;10.43;9.43;;;;;;;7.64;100.00;100184.72;5349877;27;20035;-75
2022/04/24 04:44:21;;;;;;;9.82;8.65;;;;;;;7.62;100.00;100178.72;5345520;27;20491;-75
2022/04/24 04:46:52;;;;;;;11.07;9.55;;;;;;;7.53;100.00;100178.56;5350985;27;20120;-76
2022/04/24 04:49:23;;;;;;;9.25;8.35;;;;;;;7.68;100.00;100186.97;5348395;27;20071;-76
2022/04/24 04:51:55;;;;;;;10.30;9.15;;;;;;;7.65;100.00;100191.72;5344797;27;20059;-76
2022/04/24 04:54:26;;;;;;;9.77;8.85;;;;;;;7.65;100.00;100189.91;5349221;27;20059;-75
2022/04/24 04:56:57;;;;;;;9.68;8.68;;;;;;;7.71;100.00;100197.31;5349568;27;20094;-75
2022/04/24 04:59:28;;;;;;;9.85;8.85;;;;;;;7.64;100.00;100184.72;5348745;27;20367;-75
2022/04/24 05:02:00;;;;;;;11.05;9.20;;;;;;;7.70;100.00;100190.31;5347962;27;20098;-75
2022/04/24 05:04:31;;;;;;;9.65;8.68;;;;;;;7.65;100.00;100195.22;5352315;27;20038;-75
2022/04/24 05:07:02;;;;;;;10.43;9.13;;;;;;;7.67;100.00;100193.25;5349885;27;20023;-75
2022/04/24 05:09:34;;;;;;;11.23;8.90;;;;;;;7.71;100.00;100197.31;5352346;27;20050;-75
2022/04/24 05:12:06;;;;;;;10.73;8.88;;;;;;;7.79;100.00;100201.09;5350469;27;20400;-75
2022/04/24 05:14:38;;;;;;;10.32;9.23;;;;;;;7.91;100.00;100210.59;5345895;27;20028;-74
2022/04/24 05:17:09;;;;;;;9.38;8.48;;;;;;;8.05;100.00;100202.19;5345721;27;41680;-75
2022/04/24 05:19:40;;;;;;;11.57;9.20;;;;;;;8.26;100.00;100220.59;5343767;27;20393;-75
2022/04/24 05:22:11;;;;;;;9.10;8.20;;;;;;;8.40;100.00;100213.19;5343692;27;20031;-75
2022/04/24 05:24:43;;;;;;;8.93;8.02;;;;;;;8.58;100.00;100219.44;5346926;27;20039;-75
2022/04/24 05:27:14;;;;;;;9.85;8.75;;;;;;;8.81;100.00;100224.41;5337859;27;20035;-75
2022/04/24 05:29:46;;;;;;;11.82;8.00;;;;;;;8.92;100.00;100218.06;5348031;27;20487;-75
2022/04/24 05:32:17;;;;;;;10.05;8.45;;;;;;;9.14;100.00;100223.00;5343662;27;20022;-76
2022/04/24 05:34:48;;;;;;;8.57;7.78;;;;;;;9.32;100.00;100231.00;5346533;27;20624;-76
2022/04/24 05:37:20;;;;;;;11.60;7.72;;;;;;;9.46;100.00;100229.66;5344817;27;20024;-76
2022/04/24 05:39:51;;;;;;;10.15;7.35;;;;;;;9.63;100.00;100225.34;5343855;27;20027;-75
2022/04/24 05:42:22;;;;;;;8.23;7.43;;;;;;;9.81;100.00;100225.34;5344593;27;20038;-76
2022/04/24 05:44:58;;;;;;;7.35;6.65;;;;;;;10.07;100.00;100230.72;5345062;27;20027;-76
2022/04/24 05:47:29;;;;;;;8.63;7.32;;;;;;;10.30;100.00;100228.41;5348998;27;20047;-77
2022/04/24 05:50:00;;;;;;;7.50;6.75;;;;;;;10.53;100.00;100222.59;5342460;27;20031;-76
2022/04/24 05:52:32;;;;;;;8.25;7.13;;;;;;;10.66;100.00;100233.69;5343407;27;20095;-76
2022/04/24 05:55:03;;;;;;;7.63;6.18;;;;;;;10.85;100.00;100224.63;5346260;27;21351;-77
2022/04/24 05:57:35;;;;;;;7.38;6.68;;;;;;;11.05;100.00;100237.72;5344602;27;20031;-75
2022/04/24 06:00:08;;;;;;;10.35;6.38;;;;;;;11.40;100.00;100227.84;5349252;27;20035;-76
2022/04/24 06:02:40;;;;;;;8.63;6.35;;;;;;;11.50;100.00;100236.50;5355442;27;20023;-76
2022/04/24 06:05:11;;;;;;;7.15;6.53;;;;;;;11.62;100.00;100232.53;5350496;27;20365;-76
2022/04/24 06:07:43;;;;;;;6.70;6.00;;;;;;;11.72;100.00;100230.56;5343915;27;20438;-76
2022/04/24 06:10:14;;;;;;;6.70;6.10;;;;;;;11.83;100.00;100241.94;5348321;27;20480;-76
2022/04/24 06:12:50;;;;;;;8.63;7.05;;;;;;;11.91;100.00;100242.81;5348213;27;20034;-76
2022/04/24 06:15:24;;;;;;;6.63;5.97;;;;;;;12.12;100.00;100248.69;5343323;27;20392;-76
2022/04/24 06:17:58;;;;;;;8.98;6.20;;;;;;;12.20;100.00;100256.69;5342832;27;20035;-76
2022/04/24 06:20:29;;;;;;;7.20;5.80;;;;;;;12.41;100.00;100251.66;5345196;27;20031;-75
2022/04/24 06:23:01;;;;;;;8.13;5.97;;;;;;;12.72;100.00;100245.59;5344120;27;20043;-76
2022/04/24 06:25:34;;;;;;;6.68;5.97;;;;;;;12.88;100.00;100249.22;5344759;27;20132;-76
2022/04/24 06:28:05;;;;;;;11.25;6.50;;;;;;;13.25;100.00;100248.56;5344417;27;20036;-76
2022/04/24 06:30:40;;;;;;;8.10;6.13;;;;;;;13.00;100.00;100235.28;5339316;27;20063;-76
2022/04/24 06:33:12;;;;;;;7.00;6.07;;;;;;;13.30;100.00;100246.22;5344358;27;20062;-76
2022/04/24 06:35:45;;;;;;;5.90;5.38;;;;;;;13.40;100.00;100249.53;5351984;27;20028;-76
2022/04/24 06:38:16;;;;;;;6.72;5.88;;;;;;;13.74;100.00;100251.00;5350309;27;20023;-76
2022/04/24 06:40:47;;;;;;;7.07;6.28;;;;;;;13.96;100.00;100251.22;5350772;27;20160;-75
2022/04/24 06:43:19;;;;;;;7.03;5.57;;;;;;;14.10;100.00;100260.34;5356365;27;20388;-76
2022/04/24 06:45:52;;;;;;;6.20;5.63;;;;;;;14.49;98.95;100253.97;5361050;27;20062;-76
2022/04/24 06:48:23;;;;;;;6.63;5.43;;;;;;;14.61;93.53;100255.22;5347498;27;20127;-76
2022/04/24 06:50:54;;;;;;;6.35;5.75;;;;;;;14.95;90.16;100253.84;5352097;27;20161;-76
2022/04/24 06:53:28;;;;;;;7.82;6.03;;;;;;;15.13;92.16;100257.00;5363681;27;20019;-76
2022/04/24 06:55:59;;;;;;;6.88;5.97;;;;;;;15.46;84.10;100263.78;5364204;27;20030;-76
2022/04/24 06:58:30;;;;;;;7.25;5.40;;;;;;;15.89;80.44;100253.13;5348397;27;20035;-75
2022/04/24 07:01:02;;;;;;;7.13;5.35;;;;;;;16.20;76.31;100260.88;5347269;27;20511;-76
2022/04/24 07:03:34;;;;;;;7.30;5.18;;;;;;;16.19;74.22;100261.91;5352830;27;20050;-76
2022/04/24 07:06:07;;;;;;;6.20;4.97;;;;;;;16.72;71.41;100264.16;5370322;27;20033;-76
2022/04/24 07:08:38;;;;;;;6.30;5.68;;;;;;;16.59;68.46;100253.31;5368918;27;20065;-76
2022/04/24 07:11:10;;;;;;;8.85;5.95;;;;;;;16.94;67.55;100253.38;5369076;27;20064;-76
2022/04/24 07:13:41;;;;;;;6.22;5.45;;;;;;;17.17;65.53;100248.50;5355128;27;20044;-76
2022/04/24 07:16:12;;;;;;;6.10;5.60;;;;;;;17.80;64.58;100260.16;5355883;27;20039;-75
2022/04/24 07:18:43;;;;;;;6.65;5.35;;;;;;;17.80;61.54;100263.66;5349531;27;20153;-76
2022/04/24 07:21:15;;;;;;;9.25;5.40;;;;;;;18.05;60.17;100263.13;5359268;27;20388;-76
2022/04/24 07:23:46;;;;;;;7.25;5.30;;;;;;;18.75;59.69;100258.13;5349874;27;20051;-76
2022/04/24 07:26:17;;;;;;;8.57;5.53;;;;;;;18.70;55.68;100266.84;5350740;27;20038;-76
2022/04/24 07:28:48;;;;;;;5.88;5.38;;;;;;;19.04;54.21;100269.53;5358357;27;20039;-76
2022/04/24 07:31:20;;;;;;;7.03;5.70;;;;;;;19.56;52.71;100275.75;5364746;27;20469;-76
2022/04/24 07:33:52;;;;;;;6.13;5.35;;;;;;;19.44;51.11;100251.28;5358424;27;20376;-76
2022/04/24 07:36:24;;;;;;;7.63;5.82;;;;;;;19.74;50.82;100268.84;5369552;27;20125;-76
2022/04/24 07:38:55;;;;;;;7.85;5.93;;;;;;;19.98;48.66;100272.66;5366921;27;20545;-76
2022/04/24 07:41:26;;;;;;;8.38;5.93;;;;;;;20.54;48.36;100274.50;5347502;27;20023;-76
2022/04/24 07:43:58;;;;;;;6.10;5.50;;;;;;;21.06;45.92;100271.53;5348209;27;20039;-76
2022/04/24 07:46:29;;;;;;;6.50;5.75;;;;;;;21.08;45.17;100268.59;5359652;27;20062;-76
2022/04/24 07:49:01;;;;;;;6.00;5.40;;;;;;;21.43;42.89;100266.09;5369414;27;20039;-76
2022/04/24 07:51:32;;;;;;;6.10;5.50;;;;;;;21.94;42.81;100272.09;5369553;27;20038;-76
2022/04/24 07:54:03;;;;;;;7.55;5.35;;;;;;;22.59;41.39;100276.72;5360772;27;20480;-76
2022/04/24 07:56:35;;;;;;;5.25;4.82;;;;;;;22.32;40.48;100280.94;5350990;27;20119;-76
2022/04/24 07:59:06;;;;;;;7.67;5.00;;;;;;;22.60;39.61;100277.56;5364122;27;20029;-76
2022/04/24 08:01:37;;;;;;;5.80;5.00;;;;;;;22.57;39.38;100280.75;5366006;27;20314;-76
2022/04/24 08:04:08;;;;;;;7.00;5.93;;;;;;;22.73;38.64;100273.78;5358834;27;20031;-76
2022/04/24 08:06:40;;;;;;;8.07;5.77;;;;;;;22.69;38.46;100278.06;5368243;27;20027;-76
2022/04/24 08:09:11;;;;;;;8.43;5.65;;;;;;;23.11;37.56;100277.94;5368774;27;20275;-77
2022/04/24 08:11:42;;;;;;;6.53;4.97;;;;;;;23.10;37.19;100285.25;5367607;27;20030;-76
2022/04/24 08:14:14;;;;;;;6.87;5.37;;;;;;;23.98;36.91;100285.09;5362659;27;20015;-76
2022/04/24 08:16:45;;;;;;;5.18;4.75;;;;;;;24.79;34.92;100286.72;5349235;27;20293;-76
2022/04/24 08:19:17;;;;;;;6.45;5.40;;;;;;;24.79;34.30;100286.72;5346442;27;20024;-76
2022/04/24 08:21:48;;;;;;;5.75;5.20;;;;;;;25.10;33.35;100280.63;5347677;27;20088;-76
2022/04/24 08:24:19;;;;;;;5.88;5.18;;;;;;;25.56;32.77;100280.41;5346987;27;20505;-76
2022/04/24 08:26:51;;;;;;;6.00;5.40;;;;;;;26.02;32.38;100283.63;5345379;27;20365;-76
2022/04/24 08:29:22;;;;;;;6.43;5.28;;;;;;;26.54;31.65;100281.31;5346302;27;20058;-76
2022/04/24 08:31:53;;;;;;;6.55;5.55;;;;;;;25.95;31.48;100285.75;5348212;27;20020;-76
2022/04/24 08:34:24;;;;;;;6.05;5.45;;;;;;;26.27;30.91;100284.13;5347377;27;20093;-76
2022/04/24 08:36:56;;;;;;;6.95;5.47;;;;;;;26.94;31.04;100289.00;5347173;27;20058;-76
2022/04/24 08:39:32;;;;;;;6.90;5.43;;;;;;;27.03;29.94;100289.31;5351783;27;20031;-76
2022/04/24 08:42:05;;;;;;;7.55;5.70;;;;;;;26.86;29.91;100291.41;5359104;27;20032;-76
2022/04/24 08:44:37;;;;;;;6.43;5.20;;;;;;;27.51;29.07;100286.56;5350654;27;20039;-76
2022/04/24 08:47:08;;;;;;;7.25;6.13;;;;;;;28.13;28.79;100289.44;5346590;27;20088;-76
2022/04/24 08:49:40;;;;;;;7.25;5.55;;;;;;;28.03;28.21;100288.34;5345314;27;20524;-76
2022/04/24 08:52:13;;;;;;;6.38;5.78;;;;;;;27.65;27.21;100281.41;5350503;27;20469;-76
2022/04/24 08:54:45;;;;;;;9.43;6.07;;;;;;;28.62;27.15;100272.47;5357668;27;20023;-76
2022/04/24 08:57:17;;;;;;;8.45;6.43;;;;;;;28.51;27.26;100287.25;5365364;27;20023;-76
2022/04/24 08:59:48;;;;;;;6.97;5.68;;;;;;;29.10;26.47;100292.09;5352356;27;20038;-76
2022/04/24 09:02:20;;;;;;;7.13;5.77;;;;;;;29.09;25.88;100292.41;5346717;27;20394;-76
2022/04/24 09:04:55;;;;;;;6.47;5.85;;;;;;;30.42;25.41;100296.34;5345503;27;20587;-76
2022/04/24 09:07:31;;;;;;;6.07;5.43;;;;;;;30.25;25.12;100289.31;5367528;27;20054;-77
2022/04/24 09:10:07;;;;;;;6.22;5.63;;;;;;;30.31;24.97;100295.59;5367922;27;20122;-77
2022/04/24 09:12:40;;;;;;;8.50;6.53;;;;;;;30.02;24.69;100295.56;5367598;27;20156;-77
2022/04/24 09:15:15;;;;;;;9.80;5.85;;;;;;;30.17;24.68;100292.66;5364256;27;20061;-77
2022/04/24 09:17:47;;;;;;;7.15;6.03;;;;;;;31.29;23.79;100295.47;5365590;27;20030;-77
2022/04/24 09:20:19;;;;;;;7.18;6.53;;;;;;;30.01;24.14;100289.22;5352410;27;20380;-77
2022/04/24 09:22:51;;;;;;;6.40;5.85;;;;;;;30.37;23.39;100293.66;5368798;27;20058;-77
2022/04/24 09:25:37;;;;;;;7.00;5.95;;;;;;;31.25;23.18;100294.41;5350751;27;20043;-76
2022/04/24 09:28:08;;;;;;;6.80;6.10;;;;;;;30.07;23.83;100301.81;5346382;27;20032;-76
2022/04/24 09:30:49;;;;;;;6.45;5.75;;;;;;;30.71;23.91;100294.41;5345402;27;20384;-76
2022/04/24 09:33:20;;;;;;;8.30;6.15;;;;;;;30.43;23.79;100298.81;5349224;27;20041;-76
2022/04/24 09:35:55;;;;;;;9.13;6.18;;;;;;;30.40;24.25;100302.16;5346161;27;20024;-76
2022/04/24 09:38:26;;;;;;;8.32;6.30;;;;;;;31.19;22.91;100301.09;5345586;27;20035;-76
2022/04/24 09:40:57;;;;;;;8.02;6.28;;;;;;;31.46;22.26;100297.72;5345474;27;20031;-76
2022/04/24 09:43:28;;;;;;;6.18;5.68;;;;;;;31.52;22.13;100284.72;5344483;27;20026;-76
2022/04/24 09:46:00;;;;;;;7.38;6.75;;;;;;;31.40;22.04;100287.88;5361938;27;20088;-76
2022/04/24 09:48:31;;;;;;;7.97;6.10;;;;;;;32.36;21.74;100297.81;5366976;27;20066;-76
2022/04/24 09:51:03;;;;;;;6.75;6.22;;;;;;;33.13;21.17;100288.13;5367479;27;20269;-76
2022/04/24 09:53:41;;;;;;;8.93;6.10;;;;;;;33.50;20.47;100289.06;5365261;27;20054;-77
2022/04/24 09:56:14;;;;;;;6.97;6.35;;;;;;;32.87;20.59;100291.44;5354126;27;20077;-76
2022/04/24 09:58:48;;;;;;;6.75;6.15;;;;;;;32.48;21.08;100286.31;5346309;27;20024;-76
2022/04/24 10:01:22;;;;;;;6.47;5.88;;;;;;;32.32;21.21;100300.38;5343468;27;20011;-76
2022/04/24 10:03:55;;;;;;;6.68;6.07;;;;;;;32.22;20.92;100286.72;5348519;27;20040;-76
2022/04/24 10:06:26;;;;;;;7.55;6.80;;;;;;;33.09;20.43;100299.00;5364994;27;20431;-76
2022/04/24 10:09:00;;;;;;;6.80;6.10;;;;;;;33.66;20.33;100297.81;5366325;27;20133;-76
2022/04/24 10:11:31;;;;;;;7.55;6.78;;;;;;;33.06;20.53;100294.06;5362722;27;20019;-76
2022/04/24 10:14:07;;;;;;;7.80;6.25;;;;;;;32.63;20.82;100283.31;5361341;27;20104;-76
2022/04/24 10:16:42;;;;;;;8.90;6.60;;;;;;;32.88;20.59;100303.28;5343952;27;20459;-76
2022/04/24 10:19:46;;;;;;;7.70;6.85;;;;;;;32.77;20.51;100291.63;5345599;27;20031;-76
2022/04/24 10:22:37;;;;;;;7.55;6.68;;;;;;;33.49;21.20;100292.97;5345278;27;20034;-76
2022/04/24 10:25:08;;;;;;;10.23;7.43;;;;;;;32.67;20.29;100292.63;5357722;27;20425;-76
2022/04/24 10:27:42;;;;;;;7.15;6.15;;;;;;;33.24;20.72;100289.63;5365826;27;20070;-76
2022/04/24 10:30:22;;;;;;;9.23;6.45;;;;;;;33.46;20.76;100299.09;5365221;27;20062;-77
2022/04/24 10:33:15;;;;;;;8.70;6.75;;;;;;;34.52;18.98;100301.63;5345558;27;20027;-77
2022/04/24 10:35:49;;;;;;;6.93;6.28;;;;;;;32.27;19.89;100294.13;5348902;27;20055;-77
2022/04/24 10:38:22;;;;;;;6.55;5.95;;;;;;;33.37;20.09;100289.91;5366872;27;20068;-77
2022/04/24 10:40:58;;;;;;;7.20;6.10;;;;;;;33.54;20.30;100284.56;5366813;27;20023;-77
2022/04/24 10:43:48;;;;;;;7.32;5.85;;;;;;;34.05;19.72;100301.94;5349997;27;20031;-77
2022/04/24 10:46:24;;;;;;;6.80;5.40;;;;;;;33.81;19.58;100296.69;5364023;27;20122;-77
2022/04/24 10:49:10;;;;;;;7.93;5.47;;;;;;;34.87;19.00;100290.75;5365073;27;20044;-77
2022/04/24 10:51:44;;;;;;;6.35;4.97;;;;;;;34.26;19.20;100294.00;5364155;27;31436;-77
2022/04/24 10:54:16;;;;;;;5.88;5.32;;;;;;;34.00;18.73;100305.63;5361554;27;20023;-77
2022/04/24 10:56:51;;;;;;;5.78;4.85;;;;;;;34.38;18.72;100285.94;5359488;27;20481;-75
2022/04/24 10:59:23;;;;;;;5.60;5.10;;;;;;;34.10;18.75;100290.75;5348957;27;20063;-76
2022/04/24 11:01:55;;;;;;;5.72;5.03;;;;;;;34.91;18.13;100298.13;5345459;27;20031;-76
2022/04/24 11:04:26;;;;;;;5.70;4.68;;;;;;;33.93;18.25;100293.38;5345273;27;20024;-77
2022/04/24 11:07:02;;;;;;;4.53;4.22;;;;;;;34.99;18.12;100289.00;5342520;27;39599;-76
2022/04/24 11:09:36;;;;;;;6.85;4.97;;;;;;;34.15;17.98;100293.38;5344874;27;20055;-76
2022/04/24 11:12:08;;;;;;;5.53;5.03;;;;;;;34.16;18.01;100292.25;5345288;27;20015;-76
2022/04/24 11:14:39;;;;;;;6.38;4.50;;;;;;;34.58;18.45;100303.94;5347455;27;20102;-76
2022/04/24 11:17:11;;;;;;;5.20;4.78;;;;;;;34.12;18.80;100305.09;5345325;27;20111;-76
2022/04/24 11:19:43;;;;;;;10.75;5.40;;;;;;;34.58;18.08;100297.59;5346024;27;20024;-76
2022/04/24 11:22:14;;;;;;;6.13;5.18;;;;;;;34.16;18.33;100302.50;5346313;27;20026;-76
2022/04/24 11:24:45;;;;;;;7.43;5.72;;;;;;;32.67;19.24;100300.91;5356818;27;20032;-76
2022/04/24 11:27:17;;;;;;;5.45;4.93;;;;;;;33.23;18.94;100292.69;5369647;27;20090;-76
2022/04/24 11:29:48;;;;;;;6.05;5.43;;;;;;;33.94;18.70;100298.56;5364113;27;20023;-76
2022/04/24 11:32:19;;;;;;;7.87;5.47;;;;;;;33.53;19.47;100291.19;5348345;27;20074;-76
2022/04/24 11:34:51;;;;;;;5.40;4.90;;;;;;;34.10;19.64;100299.06;5357876;27;20261;-76
2022/04/24 11:37:23;;;;;;;5.40;4.90;;;;;;;34.14;18.35;100293.72;5368386;27;20096;-76
2022/04/24 11:40:01;;;;;;;5.68;5.13;;;;;;;35.17;18.43;100286.28;5346892;27;20020;-76
2022/04/24 11:42:32;;;;;;;6.35;4.90;;;;;;;35.03;17.95;100301.09;5347596;27;20084;-76
2022/04/24 11:50:52;;;;;;;4.97;4.60;;;;;;;33.72;18.74;100283.59;5353179;27;20484;-76